sensor_id;sensor_type;location;lat;lon;timestamp;P1;durP1;ratioP1;P2;durP2;ratioP2
77598;SDS011;66758;52.078;5.070;2023-07-24T00:01:08;5.53;;;3.50;;
77598;SDS011;66758;52.078;5.070;2023-07-24T00:03:33;6.70;;;3.50;;
77598;SDS011;66758;52.078;5.070;2023-07-24T00:05:59;5.60;;;3.70;;
77598;SDS011;66758;52.078;5.070;2023-07-24T00:08:25;5.35;;;3.40;;
77598;SDS011;66758;52.078;5.070;2023-07-24T00:10:50;5.70;;;3.20;;
77598;SDS011;66758;52.078;5.070;2023-07-24T00:13:15;6.87;;;4.10;;
77598;SDS011;66758;52.078;5.070;2023-07-24T00:15:41;6.10;;;3.57;;
77598;SDS011;66758;52.078;5.070;2023-07-24T00:18:06;6.63;;;3.88;;
77598;SDS011;66758;52.078;5.070;2023-07-24T00:20:32;5.87;;;3.30;;
77598;SDS011;66758;52.078;5.070;2023-07-24T00:22:57;6.33;;;3.53;;
77598;SDS011;66758;52.078;5.070;2023-07-24T00:25:22;6.43;;;4.00;;
77598;SDS011;66758;52.078;5.070;2023-07-24T00:27:48;6.45;;;3.47;;
77598;SDS011;66758;52.078;5.070;2023-07-24T00:30:14;6.57;;;3.77;;
77598;SDS011;66758;52.078;5.070;2023-07-24T00:32:39;5.88;;;3.30;;
77598;SDS011;66758;52.078;5.070;2023-07-24T00:35:05;8.60;;;5.23;;
77598;SDS011;66758;52.078;5.070;2023-07-24T00:37:30;6.05;;;3.65;;
77598;SDS011;66758;52.078;5.070;2023-07-24T00:39:56;6.13;;;3.70;;
77598;SDS011;66758;52.078;5.070;2023-07-24T00:42:21;6.23;;;3.00;;
77598;SDS011;66758;52.078;5.070;2023-07-24T00:44:47;6.13;;;3.45;;
77598;SDS011;66758;52.078;5.070;2023-07-24T00:47:13;6.43;;;3.63;;
77598;SDS011;66758;52.078;5.070;2023-07-24T00:49:38;5.90;;;3.33;;
77598;SDS011;66758;52.078;5.070;2023-07-24T00:52:04;5.57;;;3.63;;
77598;SDS011;66758;52.078;5.070;2023-07-24T00:54:30;5.68;;;3.60;;
77598;SDS011;66758;52.078;5.070;2023-07-24T00:56:57;5.95;;;3.55;;
77598;SDS011;66758;52.078;5.070;2023-07-24T00:59:23;5.67;;;3.47;;
77598;SDS011;66758;52.078;5.070;2023-07-24T01:01:49;6.93;;;3.78;;
77598;SDS011;66758;52.078;5.070;2023-07-24T01:04:15;7.83;;;3.50;;
77598;SDS011;66758;52.078;5.070;2023-07-24T01:06:40;8.10;;;3.97;;
77598;SDS011;66758;52.078;5.070;2023-07-24T01:09:05;6.93;;;3.40;;
77598;SDS011;66758;52.078;5.070;2023-07-24T01:11:39;5.50;;;3.33;;
77598;SDS011;66758;52.078;5.070;2023-07-24T01:14:09;6.10;;;3.47;;
77598;SDS011;66758;52.078;5.070;2023-07-24T01:16:41;5.55;;;3.83;;
77598;SDS011;66758;52.078;5.070;2023-07-24T01:19:54;5.10;;;3.20;;
77598;SDS011;66758;52.078;5.070;2023-07-24T01:27:45;5.78;;;3.38;;
77598;SDS011;66758;52.078;5.070;2023-07-24T01:30:11;7.30;;;4.03;;
77598;SDS011;66758;52.078;5.070;2023-07-24T01:32:38;5.40;;;2.90;;
77598;SDS011;66758;52.078;5.070;2023-07-24T01:35:04;7.75;;;3.33;;
77598;SDS011;66758;52.078;5.070;2023-07-24T01:37:30;6.53;;;3.65;;
77598;SDS011;66758;52.078;5.070;2023-07-24T01:39:56;5.88;;;3.60;;
77598;SDS011;66758;52.078;5.070;2023-07-24T01:42:22;5.30;;;3.20;;
77598;SDS011;66758;52.078;5.070;2023-07-24T01:44:52;7.43;;;3.55;;
77598;SDS011;66758;52.078;5.070;2023-07-24T01:47:19;5.22;;;3.38;;
77598;SDS011;66758;52.078;5.070;2023-07-24T01:49:45;5.03;;;3.33;;
77598;SDS011;66758;52.078;5.070;2023-07-24T01:52:10;6.20;;;3.80;;
77598;SDS011;66758;52.078;5.070;2023-07-24T01:54:35;6.47;;;3.70;;
77598;SDS011;66758;52.078;5.070;2023-07-24T01:57:01;7.53;;;3.70;;
77598;SDS011;66758;52.078;5.070;2023-07-24T01:59:26;7.03;;;3.70;;
77598;SDS011;66758;52.078;5.070;2023-07-24T02:01:52;5.93;;;3.65;;
77598;SDS011;66758;52.078;5.070;2023-07-24T02:04:17;6.23;;;3.37;;
77598;SDS011;66758;52.078;5.070;2023-07-24T02:06:42;8.40;;;3.60;;
77598;SDS011;66758;52.078;5.070;2023-07-24T02:09:08;7.30;;;3.77;;
77598;SDS011;66758;52.078;5.070;2023-07-24T02:11:33;6.22;;;3.30;;
77598;SDS011;66758;52.078;5.070;2023-07-24T02:13:59;5.90;;;3.67;;
77598;SDS011;66758;52.078;5.070;2023-07-24T02:16:24;6.67;;;3.40;;
77598;SDS011;66758;52.078;5.070;2023-07-24T02:18:50;6.72;;;3.30;;
77598;SDS011;66758;52.078;5.070;2023-07-24T02:21:15;5.97;;;3.57;;
77598;SDS011;66758;52.078;5.070;2023-07-24T02:23:41;7.23;;;3.33;;
77598;SDS011;66758;52.078;5.070;2023-07-24T02:26:06;6.13;;;3.07;;
77598;SDS011;66758;52.078;5.070;2023-07-24T02:28:31;6.33;;;3.27;;
77598;SDS011;66758;52.078;5.070;2023-07-24T02:30:57;6.60;;;3.10;;
77598;SDS011;66758;52.078;5.070;2023-07-24T02:33:24;5.97;;;3.50;;
77598;SDS011;66758;52.078;5.070;2023-07-24T02:35:51;4.87;;;2.90;;
77598;SDS011;66758;52.078;5.070;2023-07-24T02:38:17;7.22;;;3.55;;
77598;SDS011;66758;52.078;5.070;2023-07-24T02:40:43;6.90;;;3.30;;
77598;SDS011;66758;52.078;5.070;2023-07-24T02:43:09;7.13;;;3.60;;
77598;SDS011;66758;52.078;5.070;2023-07-24T02:45:35;7.13;;;4.18;;
77598;SDS011;66758;52.078;5.070;2023-07-24T02:48:00;5.40;;;3.43;;
77598;SDS011;66758;52.078;5.070;2023-07-24T02:50:27;6.20;;;3.85;;
77598;SDS011;66758;52.078;5.070;2023-07-24T02:52:53;6.20;;;3.77;;
77598;SDS011;66758;52.078;5.070;2023-07-24T02:55:18;6.93;;;3.80;;
77598;SDS011;66758;52.078;5.070;2023-07-24T02:57:44;7.53;;;3.83;;
77598;SDS011;66758;52.078;5.070;2023-07-24T03:00:09;9.23;;;4.47;;
77598;SDS011;66758;52.078;5.070;2023-07-24T03:02:35;7.82;;;4.10;;
77598;SDS011;66758;52.078;5.070;2023-07-24T03:05:01;7.70;;;4.07;;
77598;SDS011;66758;52.078;5.070;2023-07-24T03:07:27;6.97;;;4.38;;
77598;SDS011;66758;52.078;5.070;2023-07-24T03:09:52;8.07;;;4.67;;
77598;SDS011;66758;52.078;5.070;2023-07-24T03:12:17;7.55;;;4.72;;
77598;SDS011;66758;52.078;5.070;2023-07-24T03:14:43;7.13;;;4.27;;
77598;SDS011;66758;52.078;5.070;2023-07-24T03:17:08;8.40;;;4.10;;
77598;SDS011;66758;52.078;5.070;2023-07-24T03:19:34;7.23;;;4.30;;
77598;SDS011;66758;52.078;5.070;2023-07-24T03:21:59;7.15;;;4.38;;
77598;SDS011;66758;52.078;5.070;2023-07-24T03:24:25;7.67;;;4.47;;
77598;SDS011;66758;52.078;5.070;2023-07-24T03:26:50;7.63;;;5.00;;
77598;SDS011;66758;52.078;5.070;2023-07-24T03:29:15;7.73;;;4.57;;
77598;SDS011;66758;52.078;5.070;2023-07-24T03:31:41;7.30;;;4.60;;
77598;SDS011;66758;52.078;5.070;2023-07-24T03:34:06;8.35;;;3.90;;
77598;SDS011;66758;52.078;5.070;2023-07-24T03:36:32;7.17;;;4.20;;
77598;SDS011;66758;52.078;5.070;2023-07-24T03:38:57;8.37;;;4.83;;
77598;SDS011;66758;52.078;5.070;2023-07-24T03:41:22;6.13;;;4.23;;
77598;SDS011;66758;52.078;5.070;2023-07-24T03:43:48;7.97;;;4.25;;
77598;SDS011;66758;52.078;5.070;2023-07-24T03:46:13;9.80;;;4.47;;
77598;SDS011;66758;52.078;5.070;2023-07-24T03:48:39;8.40;;;4.97;;
77598;SDS011;66758;52.078;5.070;2023-07-24T03:51:04;7.03;;;4.73;;
77598;SDS011;66758;52.078;5.070;2023-07-24T03:53:29;8.13;;;4.70;;
77598;SDS011;66758;52.078;5.070;2023-07-24T03:55:55;6.93;;;4.32;;
77598;SDS011;66758;52.078;5.070;2023-07-24T03:58:20;8.07;;;4.50;;
77598;SDS011;66758;52.078;5.070;2023-07-24T04:00:46;6.70;;;4.30;;
77598;SDS011;66758;52.078;5.070;2023-07-24T04:03:11;8.57;;;5.25;;
77598;SDS011;66758;52.078;5.070;2023-07-24T04:05:37;9.13;;;5.00;;
77598;SDS011;66758;52.078;5.070;2023-07-24T04:08:02;8.33;;;4.50;;
77598;SDS011;66758;52.078;5.070;2023-07-24T04:10:28;9.75;;;4.78;;
77598;SDS011;66758;52.078;5.070;2023-07-24T04:12:55;7.50;;;4.32;;
77598;SDS011;66758;52.078;5.070;2023-07-24T04:15:22;7.63;;;4.22;;
77598;SDS011;66758;52.078;5.070;2023-07-24T04:17:47;9.33;;;4.90;;
77598;SDS011;66758;52.078;5.070;2023-07-24T04:20:13;10.23;;;4.57;;
77598;SDS011;66758;52.078;5.070;2023-07-24T04:22:38;8.20;;;4.43;;
77598;SDS011;66758;52.078;5.070;2023-07-24T04:25:04;7.87;;;4.20;;
77598;SDS011;66758;52.078;5.070;2023-07-24T04:27:29;7.07;;;4.30;;
77598;SDS011;66758;52.078;5.070;2023-07-24T04:29:55;8.00;;;5.00;;
77598;SDS011;66758;52.078;5.070;2023-07-24T04:32:20;7.90;;;4.60;;
77598;SDS011;66758;52.078;5.070;2023-07-24T04:34:46;8.30;;;4.03;;
77598;SDS011;66758;52.078;5.070;2023-07-24T04:37:11;10.07;;;4.97;;
77598;SDS011;66758;52.078;5.070;2023-07-24T04:39:39;10.10;;;4.37;;
77598;SDS011;66758;52.078;5.070;2023-07-24T04:42:05;9.93;;;4.53;;
77598;SDS011;66758;52.078;5.070;2023-07-24T04:44:30;11.07;;;5.07;;
77598;SDS011;66758;52.078;5.070;2023-07-24T04:46:57;6.85;;;4.30;;
77598;SDS011;66758;52.078;5.070;2023-07-24T04:49:23;7.47;;;4.43;;
77598;SDS011;66758;52.078;5.070;2023-07-24T04:51:49;9.20;;;4.53;;
77598;SDS011;66758;52.078;5.070;2023-07-24T04:54:15;8.38;;;4.88;;
77598;SDS011;66758;52.078;5.070;2023-07-24T04:56:41;9.57;;;5.15;;
77598;SDS011;66758;52.078;5.070;2023-07-24T04:59:06;7.87;;;4.33;;
77598;SDS011;66758;52.078;5.070;2023-07-24T05:01:31;10.97;;;5.30;;
77598;SDS011;66758;52.078;5.070;2023-07-24T05:03:57;9.70;;;5.43;;
77598;SDS011;66758;52.078;5.070;2023-07-24T05:06:22;8.57;;;4.63;;
77598;SDS011;66758;52.078;5.070;2023-07-24T05:08:48;9.17;;;4.83;;
77598;SDS011;66758;52.078;5.070;2023-07-24T05:11:14;8.65;;;4.55;;
77598;SDS011;66758;52.078;5.070;2023-07-24T05:13:39;8.97;;;4.17;;
77598;SDS011;66758;52.078;5.070;2023-07-24T05:16:05;8.13;;;4.07;;
77598;SDS011;66758;52.078;5.070;2023-07-24T05:18:30;8.70;;;4.18;;
77598;SDS011;66758;52.078;5.070;2023-07-24T05:20:55;8.20;;;4.87;;
77598;SDS011;66758;52.078;5.070;2023-07-24T05:23:21;7.80;;;3.97;;
77598;SDS011;66758;52.078;5.070;2023-07-24T05:25:46;8.20;;;4.37;;
77598;SDS011;66758;52.078;5.070;2023-07-24T05:28:12;8.52;;;4.35;;
77598;SDS011;66758;52.078;5.070;2023-07-24T05:30:37;9.67;;;4.17;;
77598;SDS011;66758;52.078;5.070;2023-07-24T05:33:03;9.23;;;4.60;;
77598;SDS011;66758;52.078;5.070;2023-07-24T05:35:28;9.30;;;5.27;;
77598;SDS011;66758;52.078;5.070;2023-07-24T05:37:53;9.90;;;4.53;;
77598;SDS011;66758;52.078;5.070;2023-07-24T05:40:19;8.83;;;4.77;;
77598;SDS011;66758;52.078;5.070;2023-07-24T05:42:45;8.17;;;4.27;;
77598;SDS011;66758;52.078;5.070;2023-07-24T05:45:11;10.40;;;4.82;;
77598;SDS011;66758;52.078;5.070;2023-07-24T05:47:36;10.57;;;4.53;;
77598;SDS011;66758;52.078;5.070;2023-07-24T05:50:02;9.27;;;4.07;;
77598;SDS011;66758;52.078;5.070;2023-07-24T05:52:28;7.80;;;4.30;;
77598;SDS011;66758;52.078;5.070;2023-07-24T05:54:54;7.27;;;3.93;;
77598;SDS011;66758;52.078;5.070;2023-07-24T05:57:19;9.27;;;4.60;;
77598;SDS011;66758;52.078;5.070;2023-07-24T05:59:44;10.63;;;4.60;;
77598;SDS011;66758;52.078;5.070;2023-07-24T06:02:10;9.67;;;4.63;;
77598;SDS011;66758;52.078;5.070;2023-07-24T06:04:36;8.93;;;4.27;;
77598;SDS011;66758;52.078;5.070;2023-07-24T06:07:01;9.65;;;4.97;;
77598;SDS011;66758;52.078;5.070;2023-07-24T06:09:27;7.30;;;4.20;;
77598;SDS011;66758;52.078;5.070;2023-07-24T06:11:52;8.67;;;4.67;;
77598;SDS011;66758;52.078;5.070;2023-07-24T06:14:17;7.93;;;4.65;;
77598;SDS011;66758;52.078;5.070;2023-07-24T06:16:43;10.33;;;4.47;;
77598;SDS011;66758;52.078;5.070;2023-07-24T06:19:08;7.70;;;4.20;;
77598;SDS011;66758;52.078;5.070;2023-07-24T06:21:34;7.20;;;4.40;;
77598;SDS011;66758;52.078;5.070;2023-07-24T06:23:59;10.63;;;4.90;;
77598;SDS011;66758;52.078;5.070;2023-07-24T06:26:24;7.70;;;4.40;;
77598;SDS011;66758;52.078;5.070;2023-07-24T06:28:50;7.50;;;3.87;;
77598;SDS011;66758;52.078;5.070;2023-07-24T06:31:15;8.00;;;4.40;;
77598;SDS011;66758;52.078;5.070;2023-07-24T06:33:41;9.40;;;4.00;;
77598;SDS011;66758;52.078;5.070;2023-07-24T06:36:09;9.03;;;4.80;;
77598;SDS011;66758;52.078;5.070;2023-07-24T06:38:35;6.20;;;3.60;;
77598;SDS011;66758;52.078;5.070;2023-07-24T06:41:01;7.40;;;4.80;;
77598;SDS011;66758;52.078;5.070;2023-07-24T06:43:26;10.30;;;4.77;;
77598;SDS011;66758;52.078;5.070;2023-07-24T06:45:52;10.82;;;4.47;;
77598;SDS011;66758;52.078;5.070;2023-07-24T06:48:18;7.53;;;4.50;;
77598;SDS011;66758;52.078;5.070;2023-07-24T06:50:43;11.47;;;4.97;;
77598;SDS011;66758;52.078;5.070;2023-07-24T06:53:09;10.73;;;4.97;;
77598;SDS011;66758;52.078;5.070;2023-07-24T06:55:34;9.43;;;5.07;;
77598;SDS011;66758;52.078;5.070;2023-07-24T06:57:59;11.90;;;5.50;;
77598;SDS011;66758;52.078;5.070;2023-07-24T07:00:25;11.27;;;5.03;;
77598;SDS011;66758;52.078;5.070;2023-07-24T07:02:50;9.53;;;4.83;;
77598;SDS011;66758;52.078;5.070;2023-07-24T07:05:16;11.63;;;4.67;;
77598;SDS011;66758;52.078;5.070;2023-07-24T07:07:41;7.67;;;3.70;;
77598;SDS011;66758;52.078;5.070;2023-07-24T07:10:07;10.30;;;4.05;;
77598;SDS011;66758;52.078;5.070;2023-07-24T07:12:32;7.13;;;4.03;;
77598;SDS011;66758;52.078;5.070;2023-07-24T07:14:58;8.67;;;4.33;;
77598;SDS011;66758;52.078;5.070;2023-07-24T07:17:23;8.65;;;4.00;;
77598;SDS011;66758;52.078;5.070;2023-07-24T07:19:48;7.13;;;3.73;;
77598;SDS011;66758;52.078;5.070;2023-07-24T07:22:14;6.83;;;3.40;;
77598;SDS011;66758;52.078;5.070;2023-07-24T07:24:39;7.63;;;3.20;;
77598;SDS011;66758;52.078;5.070;2023-07-24T07:27:05;6.55;;;3.15;;
77598;SDS011;66758;52.078;5.070;2023-07-24T07:29:30;10.00;;;3.47;;
77598;SDS011;66758;52.078;5.070;2023-07-24T07:31:56;7.68;;;3.17;;
77598;SDS011;66758;52.078;5.070;2023-07-24T07:34:22;7.10;;;4.33;;
77598;SDS011;66758;52.078;5.070;2023-07-24T07:36:47;8.57;;;3.78;;
77598;SDS011;66758;52.078;5.070;2023-07-24T07:39:13;7.00;;;3.80;;
77598;SDS011;66758;52.078;5.070;2023-07-24T07:41:38;8.03;;;3.40;;
77598;SDS011;66758;52.078;5.070;2023-07-24T07:44:04;7.83;;;3.80;;
77598;SDS011;66758;52.078;5.070;2023-07-24T07:46:29;6.95;;;3.33;;
77598;SDS011;66758;52.078;5.070;2023-07-24T07:48:55;11.57;;;4.60;;
77598;SDS011;66758;52.078;5.070;2023-07-24T07:51:20;7.27;;;3.90;;
77598;SDS011;66758;52.078;5.070;2023-07-24T07:53:45;7.07;;;4.60;;
77598;SDS011;66758;52.078;5.070;2023-07-24T07:56:11;8.80;;;4.20;;
77598;SDS011;66758;52.078;5.070;2023-07-24T07:58:36;8.30;;;4.47;;
77598;SDS011;66758;52.078;5.070;2023-07-24T08:01:05;9.50;;;4.43;;
77598;SDS011;66758;52.078;5.070;2023-07-24T08:03:31;14.13;;;5.63;;
77598;SDS011;66758;52.078;5.070;2023-07-24T08:05:57;9.98;;;4.93;;
77598;SDS011;66758;52.078;5.070;2023-07-24T08:08:23;7.30;;;4.23;;
77598;SDS011;66758;52.078;5.070;2023-07-24T08:10:49;9.10;;;5.25;;
77598;SDS011;66758;52.078;5.070;2023-07-24T08:13:14;10.37;;;5.30;;
77598;SDS011;66758;52.078;5.070;2023-07-24T08:15:39;8.00;;;5.00;;
77598;SDS011;66758;52.078;5.070;2023-07-24T08:18:05;8.90;;;5.20;;
77598;SDS011;66758;52.078;5.070;2023-07-24T08:20:31;10.35;;;5.40;;
77598;SDS011;66758;52.078;5.070;2023-07-24T08:22:57;8.40;;;4.77;;
77598;SDS011;66758;52.078;5.070;2023-07-24T08:25:23;7.35;;;4.65;;
77598;SDS011;66758;52.078;5.070;2023-07-24T08:27:48;9.03;;;4.87;;
77598;SDS011;66758;52.078;5.070;2023-07-24T08:30:14;6.88;;;4.28;;
77598;SDS011;66758;52.078;5.070;2023-07-24T08:32:39;8.73;;;4.90;;
77598;SDS011;66758;52.078;5.070;2023-07-24T08:35:05;8.37;;;4.87;;
77598;SDS011;66758;52.078;5.070;2023-07-24T08:37:31;11.98;;;5.90;;
77598;SDS011;66758;52.078;5.070;2023-07-24T08:39:56;8.57;;;4.30;;
77598;SDS011;66758;52.078;5.070;2023-07-24T08:42:21;6.77;;;4.33;;
77598;SDS011;66758;52.078;5.070;2023-07-24T08:44:48;11.00;;;5.45;;
77598;SDS011;66758;52.078;5.070;2023-07-24T08:47:13;10.60;;;5.03;;
77598;SDS011;66758;52.078;5.070;2023-07-24T08:49:40;9.57;;;4.63;;
77598;SDS011;66758;52.078;5.070;2023-07-24T08:52:07;9.48;;;4.85;;
77598;SDS011;66758;52.078;5.070;2023-07-24T08:54:35;10.53;;;5.40;;
77598;SDS011;66758;52.078;5.070;2023-07-24T08:57:02;9.80;;;4.95;;
77598;SDS011;66758;52.078;5.070;2023-07-24T08:59:28;7.15;;;4.78;;
77598;SDS011;66758;52.078;5.070;2023-07-24T09:01:54;10.05;;;5.85;;
77598;SDS011;66758;52.078;5.070;2023-07-24T09:04:20;12.57;;;5.87;;
77598;SDS011;66758;52.078;5.070;2023-07-24T09:06:46;9.77;;;5.60;;
77598;SDS011;66758;52.078;5.070;2023-07-24T09:09:12;9.60;;;5.77;;
77598;SDS011;66758;52.078;5.070;2023-07-24T09:11:49;8.60;;;5.53;;
77598;SDS011;66758;52.078;5.070;2023-07-24T09:14:20;11.02;;;6.38;;
77598;SDS011;66758;52.078;5.070;2023-07-24T09:19:33;9.67;;;5.53;;
77598;SDS011;66758;52.078;5.070;2023-07-24T09:22:14;7.80;;;5.35;;
77598;SDS011;66758;52.078;5.070;2023-07-24T09:24:53;8.50;;;5.50;;
77598;SDS011;66758;52.078;5.070;2023-07-24T09:27:20;9.23;;;5.30;;
77598;SDS011;66758;52.078;5.070;2023-07-24T09:29:49;8.43;;;5.68;;
77598;SDS011;66758;52.078;5.070;2023-07-24T09:32:22;7.67;;;4.73;;
77598;SDS011;66758;52.078;5.070;2023-07-24T09:34:49;10.70;;;5.30;;
77598;SDS011;66758;52.078;5.070;2023-07-24T09:37:29;11.55;;;5.47;;
77598;SDS011;66758;52.078;5.070;2023-07-24T09:39:58;8.25;;;5.13;;
77598;SDS011;66758;52.078;5.070;2023-07-24T09:42:30;10.93;;;4.70;;
77598;SDS011;66758;52.078;5.070;2023-07-24T09:44:57;9.40;;;5.65;;
77598;SDS011;66758;52.078;5.070;2023-07-24T09:47:23;10.07;;;5.00;;
77598;SDS011;66758;52.078;5.070;2023-07-24T09:49:49;7.17;;;4.87;;
77598;SDS011;66758;52.078;5.070;2023-07-24T09:52:16;9.15;;;5.32;;
77598;SDS011;66758;52.078;5.070;2023-07-24T09:54:54;7.95;;;4.68;;
77598;SDS011;66758;52.078;5.070;2023-07-24T09:57:27;9.15;;;5.50;;
77598;SDS011;66758;52.078;5.070;2023-07-24T09:59:54;8.93;;;4.80;;
77598;SDS011;66758;52.078;5.070;2023-07-24T10:02:22;8.02;;;5.20;;
77598;SDS011;66758;52.078;5.070;2023-07-24T10:04:48;8.52;;;4.70;;
77598;SDS011;66758;52.078;5.070;2023-07-24T10:07:14;8.55;;;5.20;;
77598;SDS011;66758;52.078;5.070;2023-07-24T10:09:41;9.10;;;4.65;;
77598;SDS011;66758;52.078;5.070;2023-07-24T10:12:08;8.83;;;5.17;;
77598;SDS011;66758;52.078;5.070;2023-07-24T10:14:35;8.45;;;5.40;;
77598;SDS011;66758;52.078;5.070;2023-07-24T10:17:02;9.43;;;5.53;;
77598;SDS011;66758;52.078;5.070;2023-07-24T10:19:41;8.70;;;5.03;;
77598;SDS011;66758;52.078;5.070;2023-07-24T10:22:19;8.05;;;4.95;;
77598;SDS011;66758;52.078;5.070;2023-07-24T10:24:45;6.97;;;5.47;;
77598;SDS011;66758;52.078;5.070;2023-07-24T10:27:12;8.82;;;5.22;;
77598;SDS011;66758;52.078;5.070;2023-07-24T10:29:37;7.40;;;5.43;;
77598;SDS011;66758;52.078;5.070;2023-07-24T10:32:04;9.38;;;5.47;;
77598;SDS011;66758;52.078;5.070;2023-07-24T10:34:37;6.97;;;4.82;;
77598;SDS011;66758;52.078;5.070;2023-07-24T10:37:03;7.10;;;5.53;;
77598;SDS011;66758;52.078;5.070;2023-07-24T10:39:37;8.77;;;5.47;;
77598;SDS011;66758;52.078;5.070;2023-07-24T10:42:05;8.48;;;5.55;;
77598;SDS011;66758;52.078;5.070;2023-07-24T10:44:31;11.40;;;5.18;;
77598;SDS011;66758;52.078;5.070;2023-07-24T10:46:57;7.82;;;5.28;;
77598;SDS011;66758;52.078;5.070;2023-07-24T10:49:22;10.67;;;5.00;;
77598;SDS011;66758;52.078;5.070;2023-07-24T10:51:54;8.05;;;5.18;;
77598;SDS011;66758;52.078;5.070;2023-07-24T10:54:23;9.40;;;5.15;;
77598;SDS011;66758;52.078;5.070;2023-07-24T10:56:48;7.77;;;5.13;;
77598;SDS011;66758;52.078;5.070;2023-07-24T10:59:14;7.10;;;4.20;;
77598;SDS011;66758;52.078;5.070;2023-07-24T11:01:42;9.13;;;5.95;;
77598;SDS011;66758;52.078;5.070;2023-07-24T11:04:08;7.67;;;5.73;;
77598;SDS011;66758;52.078;5.070;2023-07-24T11:06:34;9.68;;;5.45;;
77598;SDS011;66758;52.078;5.070;2023-07-24T11:09:00;7.78;;;4.82;;
77598;SDS011;66758;52.078;5.070;2023-07-24T11:11:30;7.40;;;5.07;;
77598;SDS011;66758;52.078;5.070;2023-07-24T11:13:55;9.50;;;5.38;;
77598;SDS011;66758;52.078;5.070;2023-07-24T11:16:21;12.82;;;5.28;;
77598;SDS011;66758;52.078;5.070;2023-07-24T11:18:47;9.90;;;5.27;;
77598;SDS011;66758;52.078;5.070;2023-07-24T11:21:14;7.32;;;4.90;;
77598;SDS011;66758;52.078;5.070;2023-07-24T11:23:59;7.47;;;4.90;;
77598;SDS011;66758;52.078;5.070;2023-07-24T11:26:25;9.38;;;4.70;;
77598;SDS011;66758;52.078;5.070;2023-07-24T11:28:54;6.07;;;4.50;;
77598;SDS011;66758;52.078;5.070;2023-07-24T11:31:19;7.20;;;4.13;;
77598;SDS011;66758;52.078;5.070;2023-07-24T11:33:45;10.53;;;4.50;;
77598;SDS011;66758;52.078;5.070;2023-07-24T11:36:12;5.47;;;3.67;;
77598;SDS011;66758;52.078;5.070;2023-07-24T11:38:39;7.78;;;3.42;;
77598;SDS011;66758;52.078;5.070;2023-07-24T11:41:04;5.10;;;3.30;;
77598;SDS011;66758;52.078;5.070;2023-07-24T11:43:30;6.85;;;3.65;;
77598;SDS011;66758;52.078;5.070;2023-07-24T11:45:56;5.53;;;3.83;;
77598;SDS011;66758;52.078;5.070;2023-07-24T11:48:22;6.03;;;4.53;;
77598;SDS011;66758;52.078;5.070;2023-07-24T11:50:53;8.23;;;4.70;;
77598;SDS011;66758;52.078;5.070;2023-07-24T11:53:21;8.23;;;4.40;;
77598;SDS011;66758;52.078;5.070;2023-07-24T11:55:56;9.00;;;4.55;;
77598;SDS011;66758;52.078;5.070;2023-07-24T11:58:26;6.90;;;5.25;;
77598;SDS011;66758;52.078;5.070;2023-07-24T12:00:53;7.53;;;5.03;;
77598;SDS011;66758;52.078;5.070;2023-07-24T12:03:20;7.80;;;4.60;;
77598;SDS011;66758;52.078;5.070;2023-07-24T12:05:46;7.80;;;4.83;;
77598;SDS011;66758;52.078;5.070;2023-07-24T12:08:12;8.32;;;6.10;;
77598;SDS011;66758;52.078;5.070;2023-07-24T12:10:39;11.05;;;5.72;;
77598;SDS011;66758;52.078;5.070;2023-07-24T12:13:05;9.10;;;5.67;;
77598;SDS011;66758;52.078;5.070;2023-07-24T12:15:31;11.25;;;6.40;;
77598;SDS011;66758;52.078;5.070;2023-07-24T12:17:59;11.20;;;7.18;;
77598;SDS011;66758;52.078;5.070;2023-07-24T12:20:27;14.98;;;8.27;;
77598;SDS011;66758;52.078;5.070;2023-07-24T12:22:53;12.63;;;7.55;;
77598;SDS011;66758;52.078;5.070;2023-07-24T12:25:19;11.57;;;8.10;;
77598;SDS011;66758;52.078;5.070;2023-07-24T12:27:46;10.63;;;8.70;;
77598;SDS011;66758;52.078;5.070;2023-07-24T12:30:12;12.13;;;8.27;;
77598;SDS011;66758;52.078;5.070;2023-07-24T12:32:38;14.53;;;8.80;;
77598;SDS011;66758;52.078;5.070;2023-07-24T12:35:03;11.73;;;8.40;;
77598;SDS011;66758;52.078;5.070;2023-07-24T12:37:29;14.73;;;9.18;;
77598;SDS011;66758;52.078;5.070;2023-07-24T12:39:55;12.23;;;9.17;;
77598;SDS011;66758;52.078;5.070;2023-07-24T12:42:20;16.07;;;8.77;;
77598;SDS011;66758;52.078;5.070;2023-07-24T12:44:46;13.33;;;8.53;;
77598;SDS011;66758;52.078;5.070;2023-07-24T12:47:11;12.95;;;8.10;;
77598;SDS011;66758;52.078;5.070;2023-07-24T12:49:37;10.97;;;7.80;;
77598;SDS011;66758;52.078;5.070;2023-07-24T12:52:03;11.30;;;7.65;;
77598;SDS011;66758;52.078;5.070;2023-07-24T12:54:29;10.52;;;7.18;;
77598;SDS011;66758;52.078;5.070;2023-07-24T12:56:54;12.43;;;7.53;;
77598;SDS011;66758;52.078;5.070;2023-07-24T12:59:20;11.40;;;7.73;;
77598;SDS011;66758;52.078;5.070;2023-07-24T13:01:45;9.55;;;6.88;;
77598;SDS011;66758;52.078;5.070;2023-07-24T13:04:11;12.47;;;6.50;;
77598;SDS011;66758;52.078;5.070;2023-07-24T13:06:37;8.60;;;6.65;;
77598;SDS011;66758;52.078;5.070;2023-07-24T13:09:03;11.23;;;6.27;;
77598;SDS011;66758;52.078;5.070;2023-07-24T13:11:30;6.90;;;4.60;;
77598;SDS011;66758;52.078;5.070;2023-07-24T13:13:55;8.05;;;4.38;;
77598;SDS011;66758;52.078;5.070;2023-07-24T13:16:22;6.47;;;3.35;;
77598;SDS011;66758;52.078;5.070;2023-07-24T13:18:48;6.05;;;3.17;;
77598;SDS011;66758;52.078;5.070;2023-07-24T13:21:14;4.20;;;2.90;;
77598;SDS011;66758;52.078;5.070;2023-07-24T13:23:42;4.67;;;3.10;;
77598;SDS011;66758;52.078;5.070;2023-07-24T13:26:08;5.18;;;2.67;;
77598;SDS011;66758;52.078;5.070;2023-07-24T13:28:39;4.45;;;3.00;;
77598;SDS011;66758;52.078;5.070;2023-07-24T13:31:14;5.07;;;2.88;;
77598;SDS011;66758;52.078;5.070;2023-07-24T13:33:41;5.43;;;2.83;;
77598;SDS011;66758;52.078;5.070;2023-07-24T13:36:07;4.77;;;3.00;;
77598;SDS011;66758;52.078;5.070;2023-07-24T13:38:33;4.50;;;3.03;;
77598;SDS011;66758;52.078;5.070;2023-07-24T13:40:59;4.63;;;2.90;;
77598;SDS011;66758;52.078;5.070;2023-07-24T13:43:25;5.50;;;2.60;;
77598;SDS011;66758;52.078;5.070;2023-07-24T13:45:50;6.10;;;2.57;;
77598;SDS011;66758;52.078;5.070;2023-07-24T13:48:16;6.05;;;2.05;;
77598;SDS011;66758;52.078;5.070;2023-07-24T13:50:41;4.30;;;2.10;;
77598;SDS011;66758;52.078;5.070;2023-07-24T13:53:06;6.20;;;2.30;;
77598;SDS011;66758;52.078;5.070;2023-07-24T13:55:32;6.60;;;2.10;;
77598;SDS011;66758;52.078;5.070;2023-07-24T13:57:57;4.35;;;2.08;;
77598;SDS011;66758;52.078;5.070;2023-07-24T14:00:24;6.17;;;2.40;;
77598;SDS011;66758;52.078;5.070;2023-07-24T14:02:49;3.15;;;1.90;;
77598;SDS011;66758;52.078;5.070;2023-07-24T14:05:15;7.13;;;2.07;;
77598;SDS011;66758;52.078;5.070;2023-07-24T14:07:41;7.03;;;2.25;;
77598;SDS011;66758;52.078;5.070;2023-07-24T14:10:07;4.77;;;1.97;;
77598;SDS011;66758;52.078;5.070;2023-07-24T14:12:33;5.13;;;2.28;;
77598;SDS011;66758;52.078;5.070;2023-07-24T14:14:59;4.20;;;1.63;;
77598;SDS011;66758;52.078;5.070;2023-07-24T14:17:24;3.85;;;1.55;;
77598;SDS011;66758;52.078;5.070;2023-07-24T14:19:50;4.63;;;1.50;;
77598;SDS011;66758;52.078;5.070;2023-07-24T14:22:15;3.97;;;1.50;;
77598;SDS011;66758;52.078;5.070;2023-07-24T14:24:41;4.70;;;1.93;;
77598;SDS011;66758;52.078;5.070;2023-07-24T14:27:06;6.38;;;1.88;;
77598;SDS011;66758;52.078;5.070;2023-07-24T14:29:32;7.17;;;1.50;;
77598;SDS011;66758;52.078;5.070;2023-07-24T14:31:57;4.87;;;1.60;;
77598;SDS011;66758;52.078;5.070;2023-07-24T14:34:23;5.30;;;1.90;;
77598;SDS011;66758;52.078;5.070;2023-07-24T14:36:48;4.73;;;1.40;;
77598;SDS011;66758;52.078;5.070;2023-07-24T14:39:14;2.97;;;1.60;;
77598;SDS011;66758;52.078;5.070;2023-07-24T14:41:40;6.90;;;1.93;;
77598;SDS011;66758;52.078;5.070;2023-07-24T14:44:05;4.17;;;1.73;;
77598;SDS011;66758;52.078;5.070;2023-07-24T14:46:31;4.05;;;1.80;;
77598;SDS011;66758;52.078;5.070;2023-07-24T14:48:56;3.10;;;1.70;;